Time;durP1;ratioP1;P1;durP2;ratioP2;P2;SDS_P1;SDS_P2;PMS_P1;PMS_P2;Temp;Humidity;BMP_temperature;BMP_pressure;BME280_temperature;BME280_humidity;BME280_pressure;Samples;Min_cycle;Max_cycle;Signal;HPM_P1;HPM_P2
2021/09/15 00:01:15;;;;;;;8.98;8.27;;;;;;;19.12;70.76;100606.75;5071716;28;20035;-47
2021/09/15 00:03:41;;;;;;;10.18;9.30;;;;;;;19.13;70.69;100616.50;5061914;28;20020;-47
2021/09/15 00:06:07;;;;;;;9.27;8.43;;;;;;;19.09;70.78;100608.63;5075354;28;20020;-47
2021/09/15 00:08:32;;;;;;;9.25;8.45;;;;;;;19.11;70.60;100611.25;5073793;28;20470;-47
2021/09/15 00:10:58;;;;;;;9.13;8.32;;;;;;;19.09;70.58;100607.75;5071706;28;20031;-47
2021/09/15 00:13:23;;;;;;;8.75;8.00;;;;;;;19.10;70.56;100609.50;5072317;28;20024;-47
2021/09/15 00:15:49;;;;;;;9.60;8.70;;;;;;;19.10;70.62;100605.03;5057511;28;20055;-47
2021/09/15 00:18:14;;;;;;;9.32;8.55;;;;;;;19.10;70.70;100604.13;5073007;28;20025;-47
2021/09/15 00:20:39;;;;;;;10.00;9.10;;;;;;;19.09;70.80;100608.63;5062978;28;20036;-47
2021/09/15 00:23:05;;;;;;;9.18;8.38;;;;;;;19.09;70.85;100613.09;5070255;28;20024;-47
2021/09/15 00:25:30;;;;;;;8.63;7.82;;;;;;;19.07;70.68;100612.28;5037794;28;20131;-47
2021/09/15 00:27:56;;;;;;;9.77;8.88;;;;;;;19.08;70.79;100612.22;5065952;28;20478;-46
2021/09/15 00:30:21;;;;;;;8.35;7.72;;;;;;;19.09;70.77;100613.09;5070825;28;20037;-45
2021/09/15 00:32:46;;;;;;;8.95;8.23;;;;;;;19.09;70.71;100605.09;5054033;28;20490;-46
2021/09/15 00:35:12;;;;;;;9.57;8.57;;;;;;;19.08;70.68;100600.69;5072492;28;20132;-45
2021/09/15 00:37:38;;;;;;;9.35;8.52;;;;;;;19.09;70.64;100607.75;5056776;28;20028;-45
2021/09/15 00:40:05;;;;;;;9.50;8.70;;;;;;;19.08;70.66;100601.53;5071693;28;20025;-47
2021/09/15 00:42:30;;;;;;;9.63;8.82;;;;;;;19.08;70.63;100598.03;5064553;28;20028;-45
2021/09/15 00:44:56;;;;;;;9.68;8.88;;;;;;;19.08;70.75;100604.22;5074563;28;20029;-47
2021/09/15 00:47:22;;;;;;;9.70;8.90;;;;;;;19.08;70.78;100600.69;5071992;28;20028;-47
2021/09/15 00:49:47;;;;;;;9.25;8.52;;;;;;;19.08;70.69;100601.53;5070820;28;20028;-47
2021/09/15 00:52:12;;;;;;;9.27;8.48;;;;;;;19.07;70.87;100596.25;5052827;28;20027;-45
2021/09/15 00:54:37;;;;;;;9.27;8.48;;;;;;;19.08;70.84;100598.88;5070721;28;20037;-45
2021/09/15 00:57:03;;;;;;;9.57;8.68;;;;;;;19.07;70.71;100589.13;5074900;28;20509;-48
2021/09/15 00:59:28;;;;;;;9.32;8.52;;;;;;;19.06;70.46;100587.41;5068999;28;20103;-48
2021/09/15 01:01:53;;;;;;;9.43;8.60;;;;;;;19.07;70.75;100580.22;5071539;28;20085;-48
2021/09/15 01:04:19;;;;;;;9.30;8.50;;;;;;;19.07;70.75;100591.78;5073495;28;20125;-45
2021/09/15 01:06:45;;;;;;;8.90;8.15;;;;;;;19.06;70.67;100584.72;5072769;28;20086;-47
2021/09/15 01:09:10;;;;;;;8.93;8.13;;;;;;;19.07;70.68;100580.22;5073890;28;20542;-45
2021/09/15 01:11:37;;;;;;;8.95;8.25;;;;;;;19.06;70.83;100582.06;5058577;28;20520;-46
2021/09/15 01:14:04;;;;;;;8.82;8.05;;;;;;;19.07;70.74;100582.91;5039202;28;20509;-49
2021/09/15 01:16:47;;;;;;;9.43;8.63;;;;;;;19.05;70.78;100574.94;5050890;28;20513;-48
2021/09/15 01:19:12;;;;;;;9.30;8.50;;;;;;;19.06;70.72;100576.69;5037624;28;20046;-48
2021/09/15 01:21:37;;;;;;;9.10;8.30;;;;;;;19.07;70.80;100580.22;5072263;28;20490;-47
2021/09/15 01:24:03;;;;;;;9.60;8.75;;;;;;;19.06;70.80;100586.47;5055580;28;20024;-47
2021/09/15 01:26:33;;;;;;;8.80;8.10;;;;;;;19.05;70.77;100585.63;5069654;28;20032;-47
2021/09/15 01:28:58;;;;;;;9.15;8.35;;;;;;;19.06;70.65;100586.47;5056901;28;20035;-47
2021/09/15 01:31:23;;;;;;;9.60;8.80;;;;;;;19.05;70.87;100577.63;5071381;28;20036;-47
2021/09/15 01:33:49;;;;;;;9.75;8.85;;;;;;;19.05;70.71;100580.28;5070464;28;20394;-46
2021/09/15 01:36:14;;;;;;;9.18;8.38;;;;;;;19.04;70.67;100573.19;5072469;28;20394;-45
2021/09/15 01:38:39;;;;;;;8.98;8.18;;;;;;;19.03;70.77;100563.44;5049555;28;20458;-46
2021/09/15 01:41:05;;;;;;;10.13;9.23;;;;;;;19.03;70.66;100563.44;5069358;28;20162;-45
2021/09/15 01:43:30;;;;;;;9.13;8.32;;;;;;;19.05;70.77;100574.06;5072011;28;20021;-48
2021/09/15 01:45:55;;;;;;;9.65;8.85;;;;;;;19.03;70.85;100571.47;5064740;28;20028;-48
2021/09/15 01:48:20;;;;;;;9.27;8.52;;;;;;;19.04;70.55;100577.69;5051845;28;20474;-45
2021/09/15 01:50:46;;;;;;;8.05;7.45;;;;;;;19.03;70.85;100563.44;5069322;28;20485;-46
2021/09/15 01:53:11;;;;;;;8.95;8.25;;;;;;;19.03;70.73;100558.09;5072089;28;20021;-45
2021/09/15 01:55:36;;;;;;;8.75;8.02;;;;;;;19.03;70.71;100560.78;5069239;28;20608;-46
2021/09/15 01:58:02;;;;;;;9.80;8.90;;;;;;;19.03;70.60;100554.53;5068900;28;20047;-45
2021/09/15 02:00:27;;;;;;;8.70;8.00;;;;;;;19.03;70.81;100559.88;5074400;28;20051;-45
2021/09/15 02:02:53;;;;;;;9.63;8.75;;;;;;;19.02;70.84;100556.38;5052729;28;20029;-46
2021/09/15 02:05:18;;;;;;;9.55;8.75;;;;;;;19.03;70.72;100554.53;5071384;28;20032;-47
2021/09/15 02:07:44;;;;;;;8.57;7.88;;;;;;;19.02;70.70;100556.38;5067968;28;20025;-46
2021/09/15 02:10:10;;;;;;;9.05;8.25;;;;;;;19.01;70.71;100546.63;5073144;28;20028;-50
2021/09/15 02:12:35;;;;;;;9.38;8.60;;;;;;;19.02;70.70;100559.03;5071115;28;20024;-47
2021/09/15 02:15:01;;;;;;;8.38;7.65;;;;;;;19.02;70.80;100552.81;5068701;28;20056;-48
2021/09/15 02:17:27;;;;;;;8.63;7.85;;;;;;;19.01;70.82;100557.31;5067937;28;20024;-47
2021/09/15 02:19:53;;;;;;;8.40;7.70;;;;;;;19.00;70.62;100550.22;5074629;28;20032;-46
2021/09/15 02:22:18;;;;;;;9.07;8.32;;;;;;;19.01;70.87;100551.09;5051479;28;20478;-45
2021/09/15 02:24:43;;;;;;;9.10;8.30;;;;;;;19.00;70.91;100555.56;5050472;28;20033;-45
2021/09/15 02:27:09;;;;;;;9.00;8.20;;;;;;;19.00;70.88;100549.38;5069056;28;20031;-47
2021/09/15 02:29:34;;;;;;;8.68;7.88;;;;;;;19.00;70.85;100552.88;5055053;28;20059;-45
2021/09/15 02:31:59;;;;;;;8.50;7.70;;;;;;;19.00;70.89;100544.88;5073882;28;20020;-47
2021/09/15 02:34:25;;;;;;;8.38;7.57;;;;;;;18.98;70.85;100546.78;5059849;28;20455;-45
2021/09/15 02:36:50;;;;;;;8.90;8.10;;;;;;;18.99;70.90;100537.81;5079016;28;20024;-46
2021/09/15 02:39:15;;;;;;;9.25;8.50;;;;;;;18.99;70.71;100543.16;5071901;28;20111;-47
2021/09/15 02:41:41;;;;;;;9.38;8.57;;;;;;;18.99;70.87;100537.81;5076794;28;20031;-45
2021/09/15 02:44:06;;;;;;;9.60;8.80;;;;;;;18.98;70.72;100530.72;5077338;28;20032;-47
2021/09/15 02:46:32;;;;;;;9.40;8.68;;;;;;;18.99;70.80;100532.47;5074008;28;20107;-46
2021/09/15 02:48:58;;;;;;;9.95;9.00;;;;;;;18.98;70.69;100530.72;5068183;28;20052;-47
2021/09/15 02:51:23;;;;;;;8.98;8.20;;;;;;;18.97;70.55;100524.50;5070124;28;20085;-47
2021/09/15 02:53:48;;;;;;;8.48;7.75;;;;;;;18.98;70.88;100531.59;5066092;28;20033;-47
2021/09/15 02:56:14;;;;;;;7.90;7.20;;;;;;;18.98;70.71;100525.38;5073801;28;20017;-46
2021/09/15 02:58:39;;;;;;;8.95;8.13;;;;;;;18.98;70.86;100533.41;5076524;28;20024;-47
2021/09/15 03:01:04;;;;;;;8.77;8.02;;;;;;;18.98;70.78;100536.06;5073105;28;20037;-47
2021/09/15 03:03:30;;;;;;;8.95;8.25;;;;;;;18.98;70.76;100538.75;5070375;28;20029;-47
2021/09/15 03:05:55;;;;;;;9.65;8.85;;;;;;;18.97;70.87;100528.97;5059303;28;20028;-47
2021/09/15 03:08:20;;;;;;;9.05;8.25;;;;;;;18.97;71.11;100534.31;5074012;28;20093;-47
2021/09/15 03:10:46;;;;;;;9.15;8.32;;;;;;;18.96;70.89;100533.47;5067407;28;20036;-47
2021/09/15 03:13:12;;;;;;;9.65;8.75;;;;;;;18.96;70.96;100537.94;5077487;28;20097;-47
2021/09/15 03:15:37;;;;;;;9.48;8.68;;;;;;;18.95;70.85;100530.88;5054893;28;20035;-47
2021/09/15 03:18:03;;;;;;;8.88;8.18;;;;;;;18.95;70.67;100530.88;5058228;28;20029;-47
2021/09/15 03:20:29;;;;;;;9.07;8.27;;;;;;;18.95;70.90;100525.53;5067709;28;20119;-46
2021/09/15 03:22:54;;;;;;;9.27;8.48;;;;;;;18.95;70.81;100517.50;5076531;28;20023;-47
2021/09/15 03:25:20;;;;;;;10.02;9.07;;;;;;;18.95;70.85;100521.06;5064451;28;20069;-47
2021/09/15 03:27:45;;;;;;;8.80;8.07;;;;;;;18.94;70.84;100515.78;5071481;28;20032;-47
2021/09/15 03:30:10;;;;;;;10.25;9.25;;;;;;;18.94;70.94;100513.13;5072450;28;20031;-47
2021/09/15 03:32:36;;;;;;;8.85;8.05;;;;;;;18.94;70.84;100511.28;5076596;28;20024;-47
2021/09/15 03:35:01;;;;;;;9.45;8.55;;;;;;;18.92;70.89;100497.16;5073237;28;20497;-47
2021/09/15 03:37:26;;;;;;;8.65;7.95;;;;;;;18.93;70.82;100498.88;5071341;28;20119;-47
2021/09/15 03:39:52;;;;;;;9.15;8.35;;;;;;;18.92;71.01;100494.47;5074400;28;20031;-47
2021/09/15 03:42:17;;;;;;;8.73;7.93;;;;;;;18.94;70.82;100491.75;5074313;28;20783;-47
2021/09/15 03:44:43;;;;;;;8.30;7.60;;;;;;;18.92;70.98;100493.59;5075219;28;20588;-47
2021/09/15 03:47:09;;;;;;;9.00;8.20;;;;;;;18.91;70.81;100491.88;5072260;28;20056;-46
2021/09/15 03:49:34;;;;;;;8.30;7.60;;;;;;;18.92;70.88;100499.81;5059449;28;20017;-47
2021/09/15 03:51:59;;;;;;;8.98;8.18;;;;;;;18.92;70.98;100485.59;5066820;28;20025;-48
2021/09/15 03:54:25;;;;;;;8.52;7.82;;;;;;;18.91;70.95;100478.50;5057119;28;20033;-48
2021/09/15 03:56:50;;;;;;;8.52;7.82;;;;;;;18.91;70.98;100478.50;5057651;28;20036;-48
2021/09/15 03:59:15;;;;;;;9.45;8.65;;;;;;;18.91;70.88;100478.50;5071799;28;20379;-48
2021/09/15 04:01:41;;;;;;;8.50;7.80;;;;;;;18.90;70.92;100480.31;5068063;28;20032;-48
2021/09/15 04:04:06;;;;;;;8.65;7.85;;;;;;;18.90;70.95;100474.97;5059098;28;20020;-49
2021/09/15 04:06:32;;;;;;;9.07;8.27;;;;;;;18.90;70.82;100479.47;5073052;28;20032;-48
2021/09/15 04:08:57;;;;;;;9.43;8.63;;;;;;;18.90;71.02;100482.13;5057345;28;20032;-47
2021/09/15 04:11:22;;;;;;;9.13;8.40;;;;;;;18.89;70.85;100477.72;5072145;28;20021;-48
2021/09/15 04:13:48;;;;;;;9.32;8.43;;;;;;;18.89;71.14;100469.69;5070813;28;20028;-48
2021/09/15 04:16:13;;;;;;;8.98;8.23;;;;;;;18.89;71.02;100475.03;5057670;28;20028;-48
2021/09/15 04:18:38;;;;;;;9.18;8.38;;;;;;;18.89;70.99;100477.72;5071055;28;20024;-48
2021/09/15 04:21:04;;;;;;;8.63;7.82;;;;;;;18.88;70.84;100471.50;5064735;28;20048;-48
2021/09/15 04:23:36;;;;;;;8.52;7.72;;;;;;;18.88;71.02;100471.50;5039398;28;20103;-48
2021/09/15 04:31:32;;;;;;;8.43;7.72;;;;;;;18.86;70.98;100473.38;5073528;28;20696;-48
2021/09/15 04:33:58;;;;;;;8.52;7.82;;;;;;;18.85;70.83;100477.84;5058219;28;20025;-48
2021/09/15 04:36:23;;;;;;;9.02;8.23;;;;;;;18.86;70.97;100470.72;5076437;28;20690;-48
2021/09/15 04:38:49;;;;;;;8.25;7.55;;;;;;;18.85;70.70;100474.31;5072850;28;20025;-48
2021/09/15 04:41:17;;;;;;;8.40;7.57;;;;;;;18.85;71.00;100483.19;5056542;28;20033;-48
2021/09/15 04:43:42;;;;;;;8.48;7.78;;;;;;;18.85;71.07;100471.66;5076286;28;20528;-48
2021/09/15 04:46:09;;;;;;;7.60;6.95;;;;;;;18.85;70.98;100471.66;5061202;28;20115;-48
2021/09/15 04:48:37;;;;;;;8.10;7.40;;;;;;;18.84;70.92;100476.13;5040449;28;20398;-48
2021/09/15 04:51:03;;;;;;;8.27;7.57;;;;;;;18.83;71.16;100477.06;5043873;28;20024;-48
2021/09/15 04:53:30;;;;;;;9.82;9.00;;;;;;;18.83;71.03;100481.53;5057342;28;20149;-48
2021/09/15 04:55:55;;;;;;;8.02;7.32;;;;;;;18.83;71.01;100479.75;5071810;28;20135;-48
2021/09/15 04:58:20;;;;;;;8.38;7.68;;;;;;;18.82;71.00;100478.00;5057407;28;20534;-48
2021/09/15 05:00:46;;;;;;;7.47;6.88;;;;;;;18.83;70.74;100473.53;5078834;28;20027;-48
2021/09/15 05:03:11;;;;;;;8.77;8.00;;;;;;;18.82;70.89;100472.69;5073516;28;20013;-48
2021/09/15 05:05:37;;;;;;;7.85;7.15;;;;;;;18.81;70.84;100473.59;5057507;28;20024;-48
2021/09/15 05:08:02;;;;;;;7.93;7.32;;;;;;;18.81;71.02;100462.91;5054565;28;20035;-48
2021/09/15 05:10:27;;;;;;;8.43;7.72;;;;;;;18.80;71.01;100463.84;5038639;28;20528;-48
2021/09/15 05:12:56;;;;;;;8.30;7.60;;;;;;;18.81;70.89;100465.56;5071132;28;20028;-49
2021/09/15 05:15:22;;;;;;;7.95;7.25;;;;;;;18.81;70.81;100465.56;5068589;28;20050;-48
2021/09/15 05:17:48;;;;;;;8.15;7.38;;;;;;;18.81;71.00;100459.38;5069853;28;20032;-48
2021/09/15 05:20:17;;;;;;;8.20;7.53;;;;;;;18.80;70.91;100461.19;5069306;28;20043;-48
2021/09/15 05:22:46;;;;;;;8.00;7.30;;;;;;;18.80;70.88;100466.53;5075808;28;20111;-48
2021/09/15 05:25:13;;;;;;;7.55;6.78;;;;;;;18.79;71.00;100467.47;5070258;28;20475;-48
2021/09/15 05:27:38;;;;;;;8.43;7.72;;;;;;;18.80;71.02;100465.66;5071849;28;20020;-48
2021/09/15 05:30:04;;;;;;;8.50;7.70;;;;;;;18.79;71.04;100472.81;5072620;28;20031;-48
2021/09/15 05:32:29;;;;;;;8.18;7.47;;;;;;;18.79;71.03;100477.28;5074911;28;20071;-48
2021/09/15 05:34:55;;;;;;;8.68;7.88;;;;;;;18.79;71.15;100472.81;5040436;28;20024;-48
2021/09/15 05:37:20;;;;;;;8.82;8.02;;;;;;;18.77;70.82;100460.47;5075989;28;20037;-48
2021/09/15 05:39:45;;;;;;;8.15;7.45;;;;;;;18.78;70.89;100468.41;5071893;28;20033;-48
2021/09/15 05:42:11;;;;;;;8.48;7.68;;;;;;;18.77;70.91;100471.16;5072496;28;20387;-48
2021/09/15 05:44:36;;;;;;;7.80;7.10;;;;;;;18.76;70.92;100464.06;5072304;28;20028;-48
2021/09/15 05:47:02;;;;;;;8.13;7.43;;;;;;;18.76;71.06;100475.63;5060331;28;20031;-48
2021/09/15 05:49:27;;;;;;;8.40;7.70;;;;;;;18.76;71.13;100464.94;5057167;28;20530;-48
2021/09/15 05:51:52;;;;;;;8.52;7.82;;;;;;;18.77;70.99;100473.81;5058648;28;20491;-48
2021/09/15 05:54:17;;;;;;;8.00;7.30;;;;;;;18.75;70.95;100473.91;5072578;28;20020;-48
2021/09/15 05:56:43;;;;;;;7.93;7.22;;;;;;;18.76;70.92;100472.06;5056086;28;20055;-48
2021/09/15 05:59:08;;;;;;;7.45;6.85;;;;;;;18.76;70.99;100478.28;5075097;28;20421;-48
2021/09/15 06:01:34;;;;;;;7.88;7.18;;;;;;;18.76;70.92;100475.63;5073721;28;20028;-48
2021/09/15 06:03:59;;;;;;;6.75;6.15;;;;;;;18.75;71.00;100471.22;5071789;28;20048;-48
2021/09/15 06:06:24;;;;;;;7.90;7.30;;;;;;;18.75;70.90;100468.56;5055277;28;20130;-48
2021/09/15 06:08:49;;;;;;;7.28;6.68;;;;;;;18.76;70.99;100469.41;5072392;28;20040;-48
2021/09/15 06:11:15;;;;;;;8.05;7.35;;;;;;;18.74;70.84;100474.81;5071632;28;20028;-48
2021/09/15 06:13:41;;;;;;;7.68;6.97;;;;;;;18.75;70.94;100471.22;5059051;28;20471;-48
2021/09/15 06:16:06;;;;;;;7.82;7.13;;;;;;;18.74;70.89;100469.47;5073799;28;20099;-48
2021/09/15 06:18:33;;;;;;;7.40;6.80;;;;;;;18.74;70.81;100468.63;5071082;28;20598;-48
2021/09/15 06:20:59;;;;;;;7.65;7.05;;;;;;;18.74;70.87;100463.28;5067554;28;20021;-45
2021/09/15 06:23:24;;;;;;;7.88;7.18;;;;;;;18.74;71.03;100463.28;5055927;28;20017;-45
2021/09/15 06:25:50;;;;;;;8.13;7.45;;;;;;;18.74;70.92;100465.94;5074163;28;20391;-47
2021/09/15 06:28:15;;;;;;;7.72;7.07;;;;;;;18.73;70.86;100462.41;5075781;28;20526;-45
2021/09/15 06:30:44;;;;;;;7.63;7.03;;;;;;;18.74;70.82;100455.25;5074063;28;20071;-47
2021/09/15 06:33:09;;;;;;;8.20;7.50;;;;;;;18.73;70.97;100457.06;5071922;28;20048;-46
2021/09/15 06:35:34;;;;;;;7.88;7.18;;;;;;;18.72;71.24;100447.31;5072251;28;20500;-46
2021/09/15 06:38:00;;;;;;;8.10;7.45;;;;;;;18.73;71.05;100451.72;5072702;28;20028;-44
2021/09/15 06:40:26;;;;;;;7.63;6.95;;;;;;;18.72;70.85;100445.53;5071316;28;20036;-46
2021/09/15 06:42:51;;;;;;;8.13;7.43;;;;;;;18.73;70.93;100438.38;5070945;28;20151;-46
2021/09/15 06:45:17;;;;;;;7.40;6.80;;;;;;;18.74;71.00;100439.25;5071656;28;20031;-48
2021/09/15 06:47:43;;;;;;;8.05;7.35;;;;;;;18.73;70.69;100441.03;5069482;28;20382;-46
2021/09/15 06:50:10;;;;;;;8.35;7.50;;;;;;;18.72;70.76;100429.50;5059138;28;20065;-46
2021/09/15 06:52:35;;;;;;;8.23;7.53;;;;;;;18.72;70.91;100432.16;5067619;28;20502;-48
2021/09/15 06:55:01;;;;;;;8.10;7.43;;;;;;;18.74;70.73;100431.22;5077389;28;20051;-46
2021/09/15 06:57:26;;;;;;;7.28;6.72;;;;;;;18.74;70.77;100425.88;5035390;28;20503;-46
2021/09/15 06:59:51;;;;;;;8.20;7.40;;;;;;;18.74;70.85;100425.88;5074219;28;20493;-46
2021/09/15 07:02:17;;;;;;;7.50;6.82;;;;;;;18.73;70.65;100433.03;5072122;28;20059;-46
2021/09/15 07:04:42;;;;;;;7.90;7.20;;;;;;;18.74;70.79;100441.91;5070576;28;20021;-45
2021/09/15 07:07:07;;;;;;;7.75;7.15;;;;;;;18.73;70.79;100441.03;5068593;28;20067;-47
2021/09/15 07:09:33;;;;;;;7.88;7.28;;;;;;;18.72;70.74;100433.97;5071841;28;20020;-45
2021/09/15 07:11:58;;;;;;;8.02;7.40;;;;;;;18.73;70.82;100438.38;5074375;28;20386;-45
2021/09/15 07:14:24;;;;;;;7.80;7.10;;;;;;;18.73;70.65;100449.03;5037868;28;20025;-46
2021/09/15 07:16:49;;;;;;;8.20;7.50;;;;;;;18.75;70.83;100443.63;5070970;28;20031;-45
2021/09/15 07:19:14;;;;;;;8.55;7.78;;;;;;;18.73;70.72;100435.69;5074776;28;20012;-45
2021/09/15 07:21:40;;;;;;;8.02;7.32;;;;;;;18.74;70.77;100437.41;5075205;28;20237;-46
2021/09/15 07:24:05;;;;;;;7.85;6.75;;;;;;;18.75;71.01;100439.16;5074797;28;20643;-46
2021/09/15 07:26:30;;;;;;;7.90;7.30;;;;;;;18.73;70.96;100427.69;5077638;28;20043;-46
2021/09/15 07:28:56;;;;;;;7.80;7.10;;;;;;;18.75;70.84;100430.28;5075285;28;20552;-46
2021/09/15 07:31:21;;;;;;;7.82;7.22;;;;;;;18.74;70.77;100418.72;5075228;28;20035;-44
2021/09/15 07:33:46;;;;;;;7.93;7.22;;;;;;;18.74;70.96;100426.72;5075129;28;20394;-47
2021/09/15 07:36:12;;;;;;;8.00;7.30;;;;;;;18.74;70.75;100429.41;5074985;28;20031;-45
2021/09/15 07:38:37;;;;;;;7.53;6.93;;;;;;;18.75;71.09;100423.13;5073109;28;20029;-45
2021/09/15 07:41:03;;;;;;;7.68;6.97;;;;;;;18.74;70.94;100426.72;5058987;28;20105;-44
2021/09/15 07:43:29;;;;;;;7.82;7.22;;;;;;;18.74;70.91;100432.06;5074910;28;20013;-46
2021/09/15 07:45:54;;;;;;;8.52;7.82;;;;;;;18.74;70.94;100431.22;5062389;28;20568;-45
2021/09/15 07:48:19;;;;;;;8.20;7.50;;;;;;;18.73;71.14;100427.69;5074306;28;20090;-45
2021/09/15 07:50:44;;;;;;;7.07;6.38;;;;;;;18.75;71.03;100428.47;5077666;28;20025;-44
2021/09/15 07:53:10;;;;;;;8.35;7.63;;;;;;;18.74;71.05;100442.75;5071794;28;20506;-45
2021/09/15 07:55:35;;;;;;;7.97;7.38;;;;;;;18.74;71.13;100448.09;5074136;28;20039;-49
2021/09/15 07:58:01;;;;;;;8.23;7.57;;;;;;;18.76;70.96;100440.00;5079518;28;20024;-48
2021/09/15 08:00:26;;;;;;;8.93;8.13;;;;;;;18.75;71.18;100444.50;5079077;28;20035;-45
2021/09/15 08:02:51;;;;;;;8.73;7.95;;;;;;;18.74;71.12;100440.09;5074248;28;20470;-45
2021/09/15 08:05:17;;;;;;;8.02;7.32;;;;;;;18.75;71.28;100444.50;5074265;28;20024;-45
2021/09/15 08:07:42;;;;;;;8.45;7.75;;;;;;;18.75;71.29;100451.66;5072908;28;20029;-46
2021/09/15 08:10:08;;;;;;;8.32;7.60;;;;;;;18.75;71.26;100448.97;5059224;28;20024;-46
2021/09/15 08:12:33;;;;;;;8.10;7.40;;;;;;;18.75;71.22;100452.53;5079485;28;20033;-45
2021/09/15 08:14:59;;;;;;;9.60;8.57;;;;;;;18.76;71.33;100458.72;5074021;28;20382;-46
2021/09/15 08:17:24;;;;;;;8.10;7.43;;;;;;;18.75;71.34;100452.53;5073827;28;20099;-46
2021/09/15 08:19:49;;;;;;;8.60;7.70;;;;;;;18.75;71.40;100454.31;5056403;28;20162;-45
2021/09/15 08:22:15;;;;;;;8.30;7.50;;;;;;;18.76;71.35;100450.69;5076910;28;20042;-51
2021/09/15 08:24:40;;;;;;;8.63;7.88;;;;;;;18.76;71.45;100450.69;5058996;28;20020;-47
2021/09/15 08:27:06;;;;;;;9.30;8.50;;;;;;;18.76;71.41;100445.34;5060467;28;20590;-45
2021/09/15 08:29:31;;;;;;;8.65;7.85;;;;;;;18.75;71.65;100439.16;5073070;28;20134;-46
2021/09/15 08:31:56;;;;;;;8.32;7.53;;;;;;;18.76;71.64;100438.22;5076301;28;20024;-46
2021/09/15 08:34:22;;;;;;;9.43;8.52;;;;;;;18.78;71.78;100440.81;5076082;28;20632;-46
2021/09/15 08:36:47;;;;;;;9.10;8.00;;;;;;;18.76;71.55;100430.22;5074127;28;20028;-45
2021/09/15 08:39:12;;;;;;;9.27;8.38;;;;;;;18.76;71.69;100435.56;5074488;28;20024;-45
2021/09/15 08:41:38;;;;;;;9.48;8.57;;;;;;;18.77;71.79;100431.09;5073963;28;20552;-44
2021/09/15 08:44:04;;;;;;;8.93;8.15;;;;;;;18.76;71.79;100427.53;5074218;28;20466;-47
2021/09/15 08:46:31;;;;;;;8.98;8.18;;;;;;;18.78;71.75;100433.69;5073953;28;20016;-46
2021/09/15 08:48:58;;;;;;;9.35;8.52;;;;;;;18.79;71.91;100439.88;5059743;28;20458;-45
2021/09/15 08:51:24;;;;;;;10.48;8.40;;;;;;;18.78;71.87;100436.34;5075776;28;20024;-46
2021/09/15 08:53:50;;;;;;;8.90;8.10;;;;;;;18.79;71.97;100434.53;5062208;28;20026;-46
2021/09/15 08:56:16;;;;;;;8.73;7.93;;;;;;;18.80;71.92;100439.81;5073416;28;20584;-47
2021/09/15 08:58:41;;;;;;;8.98;8.13;;;;;;;18.81;71.85;100430.00;5076093;28;20020;-45
2021/09/15 09:01:13;;;;;;;8.52;7.75;;;;;;;18.79;71.95;100435.41;5070866;28;20431;-45
2021/09/15 09:03:40;;;;;;;9.23;8.32;;;;;;;18.80;72.14;100429.13;5042996;28;20542;-45
2021/09/15 09:06:13;;;;;;;8.50;7.70;;;;;;;18.80;72.01;100429.13;5073484;28;20036;-45
2021/09/15 09:08:40;;;;;;;8.93;8.13;;;;;;;18.82;72.09;100429.94;5073560;28;20493;-46
2021/09/15 09:11:06;;;;;;;9.15;8.30;;;;;;;18.82;72.32;100429.94;5075390;28;20032;-48
2021/09/15 09:13:34;;;;;;;8.77;7.97;;;;;;;18.83;72.24;100426.31;5072214;28;20033;-47
2021/09/15 09:15:59;;;;;;;8.57;7.88;;;;;;;18.83;72.49;100437.00;5073789;28;20488;-45
2021/09/15 09:18:25;;;;;;;9.55;8.57;;;;;;;18.83;72.59;100428.97;5057905;28;20107;-46
2021/09/15 09:20:50;;;;;;;14.20;7.93;;;;;;;18.84;72.45;100428.03;5075383;28;20494;-45
2021/09/15 09:23:17;;;;;;;8.95;8.15;;;;;;;18.85;72.42;100437.78;5075699;28;20482;-45
2021/09/15 09:25:56;;;;;;;10.45;9.45;;;;;;;18.83;72.60;100431.66;5072699;28;20055;-47
2021/09/15 09:28:27;;;;;;;8.90;8.00;;;;;;;18.85;72.50;100434.25;5074672;28;20048;-46
2021/09/15 09:30:56;;;;;;;9.27;8.48;;;;;;;18.87;72.46;100435.03;5074515;28;20025;-47
2021/09/15 09:33:21;;;;;;;9.65;8.85;;;;;;;18.87;72.42;100442.19;5073216;28;20032;-45
2021/09/15 09:35:48;;;;;;;9.30;8.30;;;;;;;18.88;72.46;100433.22;5053920;28;20031;-46
2021/09/15 09:38:33;;;;;;;9.00;8.25;;;;;;;18.87;72.51;100437.69;5072989;28;20375;-48
2021/09/15 09:41:07;;;;;;;9.30;8.50;;;;;;;18.89;72.45;100434.97;5072470;28;20082;-45
2021/09/15 09:43:41;;;;;;;9.88;8.98;;;;;;;18.89;72.71;100434.97;5059838;28;20024;-45
2021/09/15 09:46:09;;;;;;;10.00;9.10;;;;;;;18.88;72.73;100430.56;5075814;28;20024;-45
2021/09/15 09:48:40;;;;;;;10.15;9.15;;;;;;;18.89;72.47;100443.84;5071676;28;20025;-47
2021/09/15 09:51:22;;;;;;;10.10;9.20;;;;;;;18.90;72.74;100450.06;5052976;28;20101;-46
2021/09/15 09:53:49;;;;;;;9.27;8.38;;;;;;;18.90;72.75;100453.59;5072295;28;20037;-45
2021/09/15 09:56:15;;;;;;;9.75;8.85;;;;;;;18.91;72.62;100462.47;5074769;28;20036;-46
2021/09/15 09:58:43;;;;;;;9.90;9.10;;;;;;;18.92;73.00;100461.53;5072407;28;20024;-48
2021/09/15 10:01:13;;;;;;;10.05;9.13;;;;;;;18.94;72.69;100467.69;5072464;28;20055;-46
2021/09/15 10:03:40;;;;;;;11.20;10.15;;;;;;;18.94;72.92;100459.66;5058661;28;20039;-45
2021/09/15 10:06:06;;;;;;;10.05;9.15;;;;;;;18.94;72.77;100481.03;5070124;28;20102;-46
2021/09/15 10:08:32;;;;;;;10.13;9.15;;;;;;;18.93;72.97;100468.59;5059682;28;20107;-47
2021/09/15 10:10:57;;;;;;;11.82;9.35;;;;;;;18.92;72.97;100470.44;5057598;28;20059;-45
2021/09/15 10:13:22;;;;;;;11.25;10.18;;;;;;;18.93;72.78;100469.47;5072435;28;20111;-46
2021/09/15 10:15:49;;;;;;;11.00;9.63;;;;;;;18.94;72.76;100475.72;5071928;28;20070;-44
2021/09/15 10:18:16;;;;;;;10.63;9.73;;;;;;;18.94;72.96;100481.91;5055804;28;20107;-47
2021/09/15 10:20:47;;;;;;;10.55;9.65;;;;;;;18.94;72.77;100473.03;5041010;28;20021;-46
2021/09/15 10:23:34;;;;;;;9.85;9.05;;;;;;;18.95;72.86;100485.44;5055010;28;20110;-47
2021/09/15 10:26:28;;;;;;;10.77;9.77;;;;;;;18.94;72.99;100478.38;5071948;28;20023;-48
2021/09/15 10:29:19;;;;;;;10.82;9.82;;;;;;;18.94;73.06;100475.72;5072374;28;20027;-46
2021/09/15 10:31:48;;;;;;;;;;;;;;;18.93;73.06;100463.25;5072747;28;20028;-46
2021/09/15 10:34:36;;;;;;;9.50;8.60;;;;;;;18.92;73.12;100461.53;5060293;28;19925;-47
2021/09/15 10:37:05;;;;;;;8.90;8.10;;;;;;;18.93;73.10;100458.78;5069215;28;20074;-47
2021/09/15 10:39:31;;;;;;;10.15;9.25;;;;;;;18.93;73.09;100460.59;5072459;28;20038;-46
2021/09/15 10:41:57;;;;;;;10.40;9.35;;;;;;;18.93;73.13;100447.22;5069348;28;20028;-45
2021/09/15 10:44:23;;;;;;;10.30;9.35;;;;;;;18.93;73.09;100447.22;5059041;28;20052;-46
2021/09/15 10:46:48;;;;;;;9.65;8.75;;;;;;;18.93;73.09;100441.88;5057153;28;20028;-47
2021/09/15 10:49:23;;;;;;;9.15;8.43;;;;;;;18.94;72.97;100447.16;5058282;28;20150;-47
2021/09/15 10:52:06;;;;;;;8.88;8.13;;;;;;;18.94;73.09;100439.13;5073334;28;20043;-45
2021/09/15 10:54:47;;;;;;;9.05;8.25;;;;;;;18.96;72.95;100431.06;5077051;28;20024;-46
2021/09/15 10:57:15;;;;;;;9.70;8.70;;;;;;;18.94;72.99;100427.59;5078549;28;20440;-47
2021/09/15 10:59:48;;;;;;;9.45;8.65;;;;;;;18.95;72.97;100437.34;5074068;28;20415;-47
2021/09/15 11:02:29;;;;;;;9.38;8.52;;;;;;;18.94;73.04;100430.28;5060507;28;20029;-46
2021/09/15 11:05:00;;;;;;;9.70;8.80;;;;;;;18.95;72.89;100442.69;5073627;28;20032;-47
2021/09/15 11:07:44;;;;;;;8.52;7.28;;;;;;;18.96;73.02;100436.41;5063455;28;20036;-46
2021/09/15 11:10:24;;;;;;;9.70;8.75;;;;;;;18.95;72.91;100423.97;5074041;28;20035;-47
2021/09/15 11:12:49;;;;;;;9.52;8.50;;;;;;;18.95;73.04;100426.66;5056596;28;20109;-48
2021/09/15 11:15:24;;;;;;;9.70;8.80;;;;;;;18.94;73.06;100423.09;5075613;28;20048;-46
2021/09/15 11:17:50;;;;;;;10.05;9.07;;;;;;;18.96;72.88;100420.38;5077607;28;20544;-47
2021/09/15 11:20:22;;;;;;;9.65;8.63;;;;;;;18.95;73.04;100414.19;5077980;28;20299;-48
2021/09/15 11:22:47;;;;;;;8.90;8.13;;;;;;;18.96;73.01;100415.91;5069994;28;20077;-47
2021/09/15 11:25:20;;;;;;;9.40;8.60;;;;;;;18.96;73.00;100415.91;5078658;28;20391;-47
2021/09/15 11:28:14;;;;;;;9.25;8.23;;;;;;;18.97;73.04;100424.75;5076454;28;20402;-47